Fithian, Illinois
Current Conditions -  °F | °C
As of 11:35 PM on Thursday 27 Nov 2014 (Local Time) from KDNV Reporting Station
Clear Clear  
Wind Chill: 10°   Ceiling: Unl
Heat Index: 17°   Visibility: 10mi
Dew Point: 13°   Wind: 5mph
Humidity: 84%   Direction: 350°N
Pressure: 30.37"   Gusts: NA
Location:  40.11°N, 87.87°W
Report Text: KDNV 280535Z AUTO 35004KT 10SM CLR M08/M11 A3037 RMK AO2 T10851107
Loading
Personal Weather Stations






























Interactive Weather Map New forecast layout! Learn more

10-Day Weather Forecast

Advertisements
Track Severe Weather on mobile